sensor_id;sensor_type;location;lat;lon;timestamp;temperature;humidity
67249;SHT31;63247;54.300;18.592;2023-03-19T00:01:53;5.56;82.84
67249;SHT31;63247;54.300;18.592;2023-03-19T00:04:20;5.42;83.19
67249;SHT31;63247;54.300;18.592;2023-03-19T00:06:49;5.17;83.76
67249;SHT31;63247;54.300;18.592;2023-03-19T00:09:19;5.04;84.39
67249;SHT31;63247;54.300;18.592;2023-03-19T00:11:46;4.91;84.74
67249;SHT31;63247;54.300;18.592;2023-03-19T00:14:12;5.00;84.66
67249;SHT31;63247;54.300;18.592;2023-03-19T00:16:38;5.03;84.68
67249;SHT31;63247;54.300;18.592;2023-03-19T00:19:04;5.01;84.75
67249;SHT31;63247;54.300;18.592;2023-03-19T00:21:31;5.01;84.69
67249;SHT31;63247;54.300;18.592;2023-03-19T00:23:57;5.13;84.38
67249;SHT31;63247;54.300;18.592;2023-03-19T00:26:27;5.10;84.31
67249;SHT31;63247;54.300;18.592;2023-03-19T00:28:55;4.94;84.70
67249;SHT31;63247;54.300;18.592;2023-03-19T00:31:29;4.79;85.18
67249;SHT31;63247;54.300;18.592;2023-03-19T00:33:57;4.70;85.56
67249;SHT31;63247;54.300;18.592;2023-03-19T00:36:25;4.76;85.40
67249;SHT31;63247;54.300;18.592;2023-03-19T00:38:54;4.90;85.09
67249;SHT31;63247;54.300;18.592;2023-03-19T00:41:21;5.11;84.38
67249;SHT31;63247;54.300;18.592;2023-03-19T00:43:51;5.06;84.51
67249;SHT31;63247;54.300;18.592;2023-03-19T00:46:17;5.01;84.65
67249;SHT31;63247;54.300;18.592;2023-03-19T00:48:43;5.10;84.57
67249;SHT31;63247;54.300;18.592;2023-03-19T00:51:09;5.06;84.52
67249;SHT31;63247;54.300;18.592;2023-03-19T00:53:39;5.01;84.56
67249;SHT31;63247;54.300;18.592;2023-03-19T00:56:07;5.06;84.39
67249;SHT31;63247;54.300;18.592;2023-03-19T00:58:34;5.00;84.48
67249;SHT31;63247;54.300;18.592;2023-03-19T01:01:00;4.94;84.75
67249;SHT31;63247;54.300;18.592;2023-03-19T01:03:26;4.80;85.26
67249;SHT31;63247;54.300;18.592;2023-03-19T01:05:52;4.73;85.58
67249;SHT31;63247;54.300;18.592;2023-03-19T01:08:18;4.65;85.82
67249;SHT31;63247;54.300;18.592;2023-03-19T01:10:44;4.63;85.88
67249;SHT31;63247;54.300;18.592;2023-03-19T01:13:11;4.76;85.52
67249;SHT31;63247;54.300;18.592;2023-03-19T01:15:38;4.83;85.35
67249;SHT31;63247;54.300;18.592;2023-03-19T01:18:04;4.90;84.95
67249;SHT31;63247;54.300;18.592;2023-03-19T01:20:30;5.01;84.65
67249;SHT31;63247;54.300;18.592;2023-03-19T01:22:56;4.84;84.91
67249;SHT31;63247;54.300;18.592;2023-03-19T01:25:21;4.77;85.14
67249;SHT31;63247;54.300;18.592;2023-03-19T01:27:47;4.90;84.97
67249;SHT31;63247;54.300;18.592;2023-03-19T01:30:13;4.90;84.84
67249;SHT31;63247;54.300;18.592;2023-03-19T01:32:39;4.91;85.04
67249;SHT31;63247;54.300;18.592;2023-03-19T01:35:05;4.84;84.94
67249;SHT31;63247;54.300;18.592;2023-03-19T01:37:31;4.72;85.33
67249;SHT31;63247;54.300;18.592;2023-03-19T01:39:57;4.68;85.58
67249;SHT31;63247;54.300;18.592;2023-03-19T01:42:22;4.65;85.65
67249;SHT31;63247;54.300;18.592;2023-03-19T01:44:48;4.58;85.92
67249;SHT31;63247;54.300;18.592;2023-03-19T01:47:25;4.66;85.86
67249;SHT31;63247;54.300;18.592;2023-03-19T01:49:54;4.65;85.89
67249;SHT31;63247;54.300;18.592;2023-03-19T01:52:22;4.52;86.29
67249;SHT31;63247;54.300;18.592;2023-03-19T01:54:48;4.48;86.45
67249;SHT31;63247;54.300;18.592;2023-03-19T01:57:15;4.56;86.36
67249;SHT31;63247;54.300;18.592;2023-03-19T01:59:44;4.51;86.38
67249;SHT31;63247;54.300;18.592;2023-03-19T02:02:27;4.51;86.65
67249;SHT31;63247;54.300;18.592;2023-03-19T02:05:14;4.35;86.91
67249;SHT31;63247;54.300;18.592;2023-03-19T02:07:41;4.24;87.16
67249;SHT31;63247;54.300;18.592;2023-03-19T02:10:10;4.22;87.50
67249;SHT31;63247;54.300;18.592;2023-03-19T02:12:37;4.17;87.48
67249;SHT31;63247;54.300;18.592;2023-03-19T02:15:03;4.28;87.38
67249;SHT31;63247;54.300;18.592;2023-03-19T02:17:29;4.37;86.97
67249;SHT31;63247;54.300;18.592;2023-03-19T02:22:26;4.30;86.84
67249;SHT31;63247;54.300;18.592;2023-03-19T02:25:09;4.32;87.02
67249;SHT31;63247;54.300;18.592;2023-03-19T02:27:35;4.34;86.77
67249;SHT31;63247;54.300;18.592;2023-03-19T02:30:17;4.30;86.95
67249;SHT31;63247;54.300;18.592;2023-03-19T02:32:43;4.34;86.81
67249;SHT31;63247;54.300;18.592;2023-03-19T02:35:09;4.51;86.33
67249;SHT31;63247;54.300;18.592;2023-03-19T02:37:34;4.52;86.44
67249;SHT31;63247;54.300;18.592;2023-03-19T02:40:06;4.45;86.51
67249;SHT31;63247;54.300;18.592;2023-03-19T02:42:34;4.59;86.19
67249;SHT31;63247;54.300;18.592;2023-03-19T02:44:59;4.55;86.30
67249;SHT31;63247;54.300;18.592;2023-03-19T02:47:26;4.46;86.46
67249;SHT31;63247;54.300;18.592;2023-03-19T02:49:52;4.35;86.76
67249;SHT31;63247;54.300;18.592;2023-03-19T02:52:19;4.27;87.01
67249;SHT31;63247;54.300;18.592;2023-03-19T02:54:45;4.25;87.11
67249;SHT31;63247;54.300;18.592;2023-03-19T02:57:11;4.15;87.48
67249;SHT31;63247;54.300;18.592;2023-03-19T02:59:36;4.14;87.78
67249;SHT31;63247;54.300;18.592;2023-03-19T03:02:03;4.28;87.66
67249;SHT31;63247;54.300;18.592;2023-03-19T03:04:29;4.24;87.33
67249;SHT31;63247;54.300;18.592;2023-03-19T03:06:55;4.22;87.27
67249;SHT31;63247;54.300;18.592;2023-03-19T03:09:22;4.20;87.53
67249;SHT31;63247;54.300;18.592;2023-03-19T03:11:48;4.02;88.09
67249;SHT31;63247;54.300;18.592;2023-03-19T03:14:13;3.93;88.45
67249;SHT31;63247;54.300;18.592;2023-03-19T03:16:39;3.79;88.71
67249;SHT31;63247;54.300;18.592;2023-03-19T03:19:05;3.53;89.33
67249;SHT31;63247;54.300;18.592;2023-03-19T03:21:30;3.58;89.66
67249;SHT31;63247;54.300;18.592;2023-03-19T03:23:56;3.58;89.69
67249;SHT31;63247;54.300;18.592;2023-03-19T03:26:21;3.42;90.22
67249;SHT31;63247;54.300;18.592;2023-03-19T03:28:47;3.36;90.51
67249;SHT31;63247;54.300;18.592;2023-03-19T03:31:13;3.31;90.66
67249;SHT31;63247;54.300;18.592;2023-03-19T03:33:39;3.29;90.80
67249;SHT31;63247;54.300;18.592;2023-03-19T03:36:05;3.33;90.73
67249;SHT31;63247;54.300;18.592;2023-03-19T03:38:30;3.42;90.42
67249;SHT31;63247;54.300;18.592;2023-03-19T03:40:57;3.33;90.48
67249;SHT31;63247;54.300;18.592;2023-03-19T03:43:23;3.21;90.68
67249;SHT31;63247;54.300;18.592;2023-03-19T03:45:49;3.24;90.85
67249;SHT31;63247;54.300;18.592;2023-03-19T03:48:15;3.33;90.82
67249;SHT31;63247;54.300;18.592;2023-03-19T03:50:41;3.51;90.72
67249;SHT31;63247;54.300;18.592;2023-03-19T03:53:06;3.49;90.17
67249;SHT31;63247;54.300;18.592;2023-03-19T03:55:33;3.42;90.35
67249;SHT31;63247;54.300;18.592;2023-03-19T03:57:59;3.45;90.28
67249;SHT31;63247;54.300;18.592;2023-03-19T04:00:24;3.62;90.08
67249;SHT31;63247;54.300;18.592;2023-03-19T04:02:50;3.64;90.03
67249;SHT31;63247;54.300;18.592;2023-03-19T04:05:17;3.87;89.65
67249;SHT31;63247;54.300;18.592;2023-03-19T04:07:43;4.00;88.65
67249;SHT31;63247;54.300;18.592;2023-03-19T04:10:09;3.93;88.65
67249;SHT31;63247;54.300;18.592;2023-03-19T04:12:38;4.07;88.30
67249;SHT31;63247;54.300;18.592;2023-03-19T04:15:05;3.98;88.40
67249;SHT31;63247;54.300;18.592;2023-03-19T04:17:32;4.01;88.47
67249;SHT31;63247;54.300;18.592;2023-03-19T04:19:58;4.08;88.56
67249;SHT31;63247;54.300;18.592;2023-03-19T04:22:23;4.14;87.90
67249;SHT31;63247;54.300;18.592;2023-03-19T04:24:49;4.15;87.87
67249;SHT31;63247;54.300;18.592;2023-03-19T04:27:14;4.05;88.01
67249;SHT31;63247;54.300;18.592;2023-03-19T04:29:40;4.17;88.03
67249;SHT31;63247;54.300;18.592;2023-03-19T04:32:06;4.01;87.99
67249;SHT31;63247;54.300;18.592;2023-03-19T04:34:31;4.51;86.90
67249;SHT31;63247;54.300;18.592;2023-03-19T04:36:57;4.44;87.05
67249;SHT31;63247;54.300;18.592;2023-03-19T04:39:23;4.45;86.97
67249;SHT31;63247;54.300;18.592;2023-03-19T04:41:49;4.08;87.95
67249;SHT31;63247;54.300;18.592;2023-03-19T04:44:14;3.67;89.20
67249;SHT31;63247;54.300;18.592;2023-03-19T04:46:40;3.51;89.87
67249;SHT31;63247;54.300;18.592;2023-03-19T04:49:06;3.36;90.37
67249;SHT31;63247;54.300;18.592;2023-03-19T04:51:32;3.29;90.77
67249;SHT31;63247;54.300;18.592;2023-03-19T04:53:58;3.19;91.03
67249;SHT31;63247;54.300;18.592;2023-03-19T04:56:24;3.05;91.58
67249;SHT31;63247;54.300;18.592;2023-03-19T04:58:50;3.09;91.70
67249;SHT31;63247;54.300;18.592;2023-03-19T05:01:15;3.09;91.66
67249;SHT31;63247;54.300;18.592;2023-03-19T05:03:41;3.07;91.94
67249;SHT31;63247;54.300;18.592;2023-03-19T05:06:07;3.26;91.50
67249;SHT31;63247;54.300;18.592;2023-03-19T05:08:33;3.29;91.37
67249;SHT31;63247;54.300;18.592;2023-03-19T05:10:58;3.36;91.22
67249;SHT31;63247;54.300;18.592;2023-03-19T05:13:24;3.39;91.07
67249;SHT31;63247;54.300;18.592;2023-03-19T05:15:52;3.48;90.83
67249;SHT31;63247;54.300;18.592;2023-03-19T05:18:18;3.69;90.35
67249;SHT31;63247;54.300;18.592;2023-03-19T05:20:44;4.04;89.22
67249;SHT31;63247;54.300;18.592;2023-03-19T05:23:09;4.07;89.27
67249;SHT31;63247;54.300;18.592;2023-03-19T05:25:35;4.05;89.54
67249;SHT31;63247;54.300;18.592;2023-03-19T05:28:02;4.20;89.32
67249;SHT31;63247;54.300;18.592;2023-03-19T05:30:28;4.30;89.23
67249;SHT31;63247;54.300;18.592;2023-03-19T05:32:55;4.44;88.31
67249;SHT31;63247;54.300;18.592;2023-03-19T05:35:21;4.70;88.02
67249;SHT31;63247;54.300;18.592;2023-03-19T05:37:47;4.81;87.42
67249;SHT31;63247;54.300;18.592;2023-03-19T05:40:12;5.11;86.75
67249;SHT31;63247;54.300;18.592;2023-03-19T05:42:38;5.31;85.90
67249;SHT31;63247;54.300;18.592;2023-03-19T05:45:04;5.26;86.29
67249;SHT31;63247;54.300;18.592;2023-03-19T05:47:30;5.35;86.38
67249;SHT31;63247;54.300;18.592;2023-03-19T05:49:56;5.62;85.88
67249;SHT31;63247;54.300;18.592;2023-03-19T05:52:22;6.34;84.13
67249;SHT31;63247;54.300;18.592;2023-03-19T05:54:47;6.69;83.05
67249;SHT31;63247;54.300;18.592;2023-03-19T05:57:14;7.19;81.67
67249;SHT31;63247;54.300;18.592;2023-03-19T05:59:40;7.99;79.63
67249;SHT31;63247;54.300;18.592;2023-03-19T06:02:06;8.51;78.26
67249;SHT31;63247;54.300;18.592;2023-03-19T06:04:32;8.20;79.69
67249;SHT31;63247;54.300;18.592;2023-03-19T06:06:57;8.12;79.04
67249;SHT31;63247;54.300;18.592;2023-03-19T06:09:23;7.89;78.96
67249;SHT31;63247;54.300;18.592;2023-03-19T06:11:49;7.34;81.01
67249;SHT31;63247;54.300;18.592;2023-03-19T06:14:14;7.34;82.04
67249;SHT31;63247;54.300;18.592;2023-03-19T06:16:40;7.54;82.25
67249;SHT31;63247;54.300;18.592;2023-03-19T06:19:05;7.47;82.74
67249;SHT31;63247;54.300;18.592;2023-03-19T06:21:31;7.41;82.70
67249;SHT31;63247;54.300;18.592;2023-03-19T06:23:57;7.38;83.38
67249;SHT31;63247;54.300;18.592;2023-03-19T06:26:23;7.82;82.17
67249;SHT31;63247;54.300;18.592;2023-03-19T06:28:49;7.83;81.67
67249;SHT31;63247;54.300;18.592;2023-03-19T06:31:15;7.88;81.70
67249;SHT31;63247;54.300;18.592;2023-03-19T06:33:41;8.14;81.77
67249;SHT31;63247;54.300;18.592;2023-03-19T06:36:07;8.51;80.28
67249;SHT31;63247;54.300;18.592;2023-03-19T06:38:33;8.92;77.60
67249;SHT31;63247;54.300;18.592;2023-03-19T06:40:59;8.74;78.40
67249;SHT31;63247;54.300;18.592;2023-03-19T06:43:26;8.61;78.71
67249;SHT31;63247;54.300;18.592;2023-03-19T06:45:51;8.69;77.65
67249;SHT31;63247;54.300;18.592;2023-03-19T06:48:17;8.53;78.12
67249;SHT31;63247;54.300;18.592;2023-03-19T06:50:45;8.44;79.33
67249;SHT31;63247;54.300;18.592;2023-03-19T06:53:11;8.36;79.90
67249;SHT31;63247;54.300;18.592;2023-03-19T06:55:37;8.27;79.94
67249;SHT31;63247;54.300;18.592;2023-03-19T06:58:05;8.13;81.28
67249;SHT31;63247;54.300;18.592;2023-03-19T07:00:32;8.34;81.40
67249;SHT31;63247;54.300;18.592;2023-03-19T07:02:57;8.46;80.99
67249;SHT31;63247;54.300;18.592;2023-03-19T07:05:23;8.22;81.71
67249;SHT31;63247;54.300;18.592;2023-03-19T07:07:49;8.40;80.78
67249;SHT31;63247;54.300;18.592;2023-03-19T07:10:20;8.33;80.39
67249;SHT31;63247;54.300;18.592;2023-03-19T07:12:46;8.57;80.87
67249;SHT31;63247;54.300;18.592;2023-03-19T07:15:12;8.50;81.09
67249;SHT31;63247;54.300;18.592;2023-03-19T07:17:38;8.79;80.86
67249;SHT31;63247;54.300;18.592;2023-03-19T07:20:05;8.72;81.48
67249;SHT31;63247;54.300;18.592;2023-03-19T07:22:31;8.57;81.43
67249;SHT31;63247;54.300;18.592;2023-03-19T07:24:57;8.47;81.72
67249;SHT31;63247;54.300;18.592;2023-03-19T07:27:22;8.58;81.93
67249;SHT31;63247;54.300;18.592;2023-03-19T07:29:48;8.84;81.66
67249;SHT31;63247;54.300;18.592;2023-03-19T07:32:13;9.01;81.20
67249;SHT31;63247;54.300;18.592;2023-03-19T07:34:40;9.05;82.16
67249;SHT31;63247;54.300;18.592;2023-03-19T07:37:05;9.33;80.83
67249;SHT31;63247;54.300;18.592;2023-03-19T07:39:31;9.40;79.85
67249;SHT31;63247;54.300;18.592;2023-03-19T07:41:57;9.69;78.22
67249;SHT31;63247;54.300;18.592;2023-03-19T07:44:22;9.78;78.25
67249;SHT31;63247;54.300;18.592;2023-03-19T07:46:48;10.22;77.12
67249;SHT31;63247;54.300;18.592;2023-03-19T07:49:13;11.62;74.04
67249;SHT31;63247;54.300;18.592;2023-03-19T07:51:39;12.17;73.14
67249;SHT31;63247;54.300;18.592;2023-03-19T07:54:05;12.62;71.85
67249;SHT31;63247;54.300;18.592;2023-03-19T07:56:31;13.19;70.56
67249;SHT31;63247;54.300;18.592;2023-03-19T07:58:56;14.29;66.96
67249;SHT31;63247;54.300;18.592;2023-03-19T08:01:24;14.44;66.20
67249;SHT31;63247;54.300;18.592;2023-03-19T08:03:50;15.56;63.46
67249;SHT31;63247;54.300;18.592;2023-03-19T08:06:16;16.63;61.16
67249;SHT31;63247;54.300;18.592;2023-03-19T08:08:41;18.36;55.72
67249;SHT31;63247;54.300;18.592;2023-03-19T08:11:07;19.03;54.85
67249;SHT31;63247;54.300;18.592;2023-03-19T08:13:33;19.61;53.09
67249;SHT31;63247;54.300;18.592;2023-03-19T08:15:59;19.82;52.28
67249;SHT31;63247;54.300;18.592;2023-03-19T08:18:24;19.51;54.16
67249;SHT31;63247;54.300;18.592;2023-03-19T08:20:50;19.08;52.58
67249;SHT31;63247;54.300;18.592;2023-03-19T08:23:17;19.19;53.88
67249;SHT31;63247;54.300;18.592;2023-03-19T08:25:42;19.33;52.91
67249;SHT31;63247;54.300;18.592;2023-03-19T08:28:08;19.33;52.32
67249;SHT31;63247;54.300;18.592;2023-03-19T08:30:35;19.05;51.96
67249;SHT31;63247;54.300;18.592;2023-03-19T08:33:01;19.46;54.46
67249;SHT31;63247;54.300;18.592;2023-03-19T08:35:26;20.21;52.33
67249;SHT31;63247;54.300;18.592;2023-03-19T08:37:53;20.56;51.16
67249;SHT31;63247;54.300;18.592;2023-03-19T08:40:19;20.36;51.30
67249;SHT31;63247;54.300;18.592;2023-03-19T08:42:45;19.95;53.04
67249;SHT31;63247;54.300;18.592;2023-03-19T08:45:12;21.53;49.34
67249;SHT31;63247;54.300;18.592;2023-03-19T08:47:40;21.39;49.65
67249;SHT31;63247;54.300;18.592;2023-03-19T08:50:06;20.70;50.68
67249;SHT31;63247;54.300;18.592;2023-03-19T08:52:32;20.97;51.50
67249;SHT31;63247;54.300;18.592;2023-03-19T08:54:57;20.56;50.84
67249;SHT31;63247;54.300;18.592;2023-03-19T08:57:23;20.81;50.27
67249;SHT31;63247;54.300;18.592;2023-03-19T08:59:49;20.73;51.52
67249;SHT31;63247;54.300;18.592;2023-03-19T09:02:16;21.24;49.41
67249;SHT31;63247;54.300;18.592;2023-03-19T09:04:42;20.90;51.53
67249;SHT31;63247;54.300;18.592;2023-03-19T09:07:09;20.26;51.42
67249;SHT31;63247;54.300;18.592;2023-03-19T09:09:41;21.85;49.23
67249;SHT31;63247;54.300;18.592;2023-03-19T09:12:08;20.77;50.72
67249;SHT31;63247;54.300;18.592;2023-03-19T09:14:35;22.08;49.24
67249;SHT31;63247;54.300;18.592;2023-03-19T09:17:02;22.47;48.27
67249;SHT31;63247;54.300;18.592;2023-03-19T09:19:28;22.95;46.08
67249;SHT31;63247;54.300;18.592;2023-03-19T09:21:56;23.62;44.92
67249;SHT31;63247;54.300;18.592;2023-03-19T09:24:21;22.69;46.24
67249;SHT31;63247;54.300;18.592;2023-03-19T09:26:47;20.77;49.39
67249;SHT31;63247;54.300;18.592;2023-03-19T09:29:14;21.85;48.75
67249;SHT31;63247;54.300;18.592;2023-03-19T09:31:41;20.98;51.19
67249;SHT31;63247;54.300;18.592;2023-03-19T09:34:06;21.80;47.77
67249;SHT31;63247;54.300;18.592;2023-03-19T09:36:34;21.72;48.91
67249;SHT31;63247;54.300;18.592;2023-03-19T09:38:59;21.28;48.99
67249;SHT31;63247;54.300;18.592;2023-03-19T09:41:38;21.02;48.75
67249;SHT31;63247;54.300;18.592;2023-03-19T09:44:20;19.98;51.29
67249;SHT31;63247;54.300;18.592;2023-03-19T09:49:53;20.95;49.43
67249;SHT31;63247;54.300;18.592;2023-03-19T09:54:57;20.94;49.29
67249;SHT31;63247;54.300;18.592;2023-03-19T09:57:25;21.82;49.37
67249;SHT31;63247;54.300;18.592;2023-03-19T09:59:54;21.19;48.69
67249;SHT31;63247;54.300;18.592;2023-03-19T10:10:43;20.50;49.02
67249;SHT31;63247;54.300;18.592;2023-03-19T10:13:29;20.73;48.52
67249;SHT31;63247;54.300;18.592;2023-03-19T10:15:59;20.52;49.64
67249;SHT31;63247;54.300;18.592;2023-03-19T10:18:31;20.92;49.65
67249;SHT31;63247;54.300;18.592;2023-03-19T10:21:03;20.59;49.73
67249;SHT31;63247;54.300;18.592;2023-03-19T10:23:56;21.29;48.74
67249;SHT31;63247;54.300;18.592;2023-03-19T10:26:31;20.37;50.06
67249;SHT31;63247;54.300;18.592;2023-03-19T10:32:03;20.21;50.25
67249;SHT31;63247;54.300;18.592;2023-03-19T10:34:34;19.79;51.70
67249;SHT31;63247;54.300;18.592;2023-03-19T10:37:03;19.40;52.71
67249;SHT31;63247;54.300;18.592;2023-03-19T10:39:34;18.43;53.64
67249;SHT31;63247;54.300;18.592;2023-03-19T10:45:28;18.12;55.62
67249;SHT31;63247;54.300;18.592;2023-03-19T10:47:56;18.72;55.39
67249;SHT31;63247;54.300;18.592;2023-03-19T10:50:49;18.03;55.18
67249;SHT31;63247;54.300;18.592;2023-03-19T10:58:24;17.32;57.24
67249;SHT31;63247;54.300;18.592;2023-03-19T11:00:56;17.61;56.93
67249;SHT31;63247;54.300;18.592;2023-03-19T11:06:05;17.83;57.20
67249;SHT31;63247;54.300;18.592;2023-03-19T11:08:36;17.56;57.24
67249;SHT31;63247;54.300;18.592;2023-03-19T11:11:02;17.51;57.55
67249;SHT31;63247;54.300;18.592;2023-03-19T11:13:28;17.75;57.01
67249;SHT31;63247;54.300;18.592;2023-03-19T11:15:56;17.68;57.94
67249;SHT31;63247;54.300;18.592;2023-03-19T11:18:34;17.68;57.87
67249;SHT31;63247;54.300;18.592;2023-03-19T11:21:22;17.65;57.25
67249;SHT31;63247;54.300;18.592;2023-03-19T11:23:58;17.62;57.85
67249;SHT31;63247;54.300;18.592;2023-03-19T11:26:24;18.23;57.61
67249;SHT31;63247;54.300;18.592;2023-03-19T11:28:53;18.26;57.43
67249;SHT31;63247;54.300;18.592;2023-03-19T11:31:25;18.02;57.06
67249;SHT31;63247;54.300;18.592;2023-03-19T11:34:07;18.27;56.77
67249;SHT31;63247;54.300;18.592;2023-03-19T11:39:25;18.34;57.26
67249;SHT31;63247;54.300;18.592;2023-03-19T11:47:42;17.89;58.11
67249;SHT31;63247;54.300;18.592;2023-03-19T11:53:13;18.02;57.63
67249;SHT31;63247;54.300;18.592;2023-03-19T11:56:04;17.41;58.69
67249;SHT31;63247;54.300;18.592;2023-03-19T12:04:29;17.68;58.71
67249;SHT31;63247;54.300;18.592;2023-03-19T12:18:26;17.55;58.93
67249;SHT31;63247;54.300;18.592;2023-03-19T12:34:47;18.14;58.53
67249;SHT31;63247;54.300;18.592;2023-03-19T12:37:15;18.16;59.20
67249;SHT31;63247;54.300;18.592;2023-03-19T12:40:11;17.97;58.75
67249;SHT31;63247;54.300;18.592;2023-03-19T12:42:40;17.99;59.54
67249;SHT31;63247;54.300;18.592;2023-03-19T12:45:31;17.92;58.79
67249;SHT31;63247;54.300;18.592;2023-03-19T12:48:03;17.83;58.51
67249;SHT31;63247;54.300;18.592;2023-03-19T12:50:33;17.97;58.88
67249;SHT31;63247;54.300;18.592;2023-03-19T12:53:01;18.07;59.21
67249;SHT31;63247;54.300;18.592;2023-03-19T12:55:39;17.87;58.59
67249;SHT31;63247;54.300;18.592;2023-03-19T13:01:19;17.64;59.56
67249;SHT31;63247;54.300;18.592;2023-03-19T13:06:34;17.78;59.39
67249;SHT31;63247;54.300;18.592;2023-03-19T13:09:35;17.73;59.19
67249;SHT31;63247;54.300;18.592;2023-03-19T13:12:09;17.78;59.52
67249;SHT31;63247;54.300;18.592;2023-03-19T13:22:58;17.72;60.50
67249;SHT31;63247;54.300;18.592;2023-03-19T13:25:46;17.38;60.68
67249;SHT31;63247;54.300;18.592;2023-03-19T13:28:28;17.27;61.58
67249;SHT31;63247;54.300;18.592;2023-03-19T13:31:05;17.25;61.76
67249;SHT31;63247;54.300;18.592;2023-03-19T13:33:35;17.00;62.54
67249;SHT31;63247;54.300;18.592;2023-03-19T13:36:07;16.87;62.69
67249;SHT31;63247;54.300;18.592;2023-03-19T13:38:46;16.75;62.68
67249;SHT31;63247;54.300;18.592;2023-03-19T13:43:57;16.76;63.68
67249;SHT31;63247;54.300;18.592;2023-03-19T13:46:34;16.79;63.67
67249;SHT31;63247;54.300;18.592;2023-03-19T13:49:08;16.73;63.10
67249;SHT31;63247;54.300;18.592;2023-03-19T13:51:48;16.73;63.40
67249;SHT31;63247;54.300;18.592;2023-03-19T13:54:18;16.65;63.67
67249;SHT31;63247;54.300;18.592;2023-03-19T13:59:39;16.76;63.15
67249;SHT31;63247;54.300;18.592;2023-03-19T14:07:41;16.77;64.02
67249;SHT31;63247;54.300;18.592;2023-03-19T14:10:24;16.83;63.60
67249;SHT31;63247;54.300;18.592;2023-03-19T14:12:51;16.79;63.54
67249;SHT31;63247;54.300;18.592;2023-03-19T14:15:27;16.80;64.03
67249;SHT31;63247;54.300;18.592;2023-03-19T14:18:02;16.73;64.20
67249;SHT31;63247;54.300;18.592;2023-03-19T14:20:44;16.72;64.48
67249;SHT31;63247;54.300;18.592;2023-03-19T14:28:22;16.48;65.16
67249;SHT31;63247;54.300;18.592;2023-03-19T14:30:49;16.41;65.30
67249;SHT31;63247;54.300;18.592;2023-03-19T14:33:21;16.42;65.70
67249;SHT31;63247;54.300;18.592;2023-03-19T14:35:48;16.41;66.01
67249;SHT31;63247;54.300;18.592;2023-03-19T14:38:36;16.33;65.56
67249;SHT31;63247;54.300;18.592;2023-03-19T14:41:03;16.31;65.98
67249;SHT31;63247;54.300;18.592;2023-03-19T14:52:03;16.29;65.00
67249;SHT31;63247;54.300;18.592;2023-03-19T14:57:17;16.24;65.61
67249;SHT31;63247;54.300;18.592;2023-03-19T14:59:43;16.24;65.71
67249;SHT31;63247;54.300;18.592;2023-03-19T15:05:05;16.05;65.79
67249;SHT31;63247;54.300;18.592;2023-03-19T15:07:35;16.01;66.51
67249;SHT31;63247;54.300;18.592;2023-03-19T15:10:04;15.93;66.78
67249;SHT31;63247;54.300;18.592;2023-03-19T15:15:29;15.80;67.13
67249;SHT31;63247;54.300;18.592;2023-03-19T15:18:00;15.66;67.66
67249;SHT31;63247;54.300;18.592;2023-03-19T15:20:31;15.67;67.61
67249;SHT31;63247;54.300;18.592;2023-03-19T15:23:01;15.64;67.70
67249;SHT31;63247;54.300;18.592;2023-03-19T15:25:28;15.66;67.86
67249;SHT31;63247;54.300;18.592;2023-03-19T15:28:09;15.56;68.22
67249;SHT31;63247;54.300;18.592;2023-03-19T15:30:35;15.56;68.53
67249;SHT31;63247;54.300;18.592;2023-03-19T15:33:01;15.42;68.63
67249;SHT31;63247;54.300;18.592;2023-03-19T15:35:34;15.35;68.73
67249;SHT31;63247;54.300;18.592;2023-03-19T15:38:08;15.32;68.50
67249;SHT31;63247;54.300;18.592;2023-03-19T15:40:35;15.33;68.62
67249;SHT31;63247;54.300;18.592;2023-03-19T15:43:02;15.32;68.90
67249;SHT31;63247;54.300;18.592;2023-03-19T15:45:30;15.23;69.51
67249;SHT31;63247;54.300;18.592;2023-03-19T15:50:35;15.12;70.01
67249;SHT31;63247;54.300;18.592;2023-03-19T15:53:05;14.96;69.70
67249;SHT31;63247;54.300;18.592;2023-03-19T15:55:32;14.95;69.18
67249;SHT31;63247;54.300;18.592;2023-03-19T15:58:10;14.89;69.74
67249;SHT31;63247;54.300;18.592;2023-03-19T16:00:40;14.75;69.72
67249;SHT31;63247;54.300;18.592;2023-03-19T16:03:09;14.68;70.06
67249;SHT31;63247;54.300;18.592;2023-03-19T16:06:00;14.70;69.95
67249;SHT31;63247;54.300;18.592;2023-03-19T16:08:28;14.65;69.93
67249;SHT31;63247;54.300;18.592;2023-03-19T16:10:54;14.68;69.96
67249;SHT31;63247;54.300;18.592;2023-03-19T16:13:29;14.61;70.10
67249;SHT31;63247;54.300;18.592;2023-03-19T16:31:45;14.16;70.86
67249;SHT31;63247;54.300;18.592;2023-03-19T16:36:47;13.77;72.86
67249;SHT31;63247;54.300;18.592;2023-03-19T16:42:27;13.53;73.83
67249;SHT31;63247;54.300;18.592;2023-03-19T16:44:53;13.44;74.09
67249;SHT31;63247;54.300;18.592;2023-03-19T16:47:20;13.34;73.64
67249;SHT31;63247;54.300;18.592;2023-03-19T16:49:46;13.54;73.09
67249;SHT31;63247;54.300;18.592;2023-03-19T16:52:22;13.55;73.00
67249;SHT31;63247;54.300;18.592;2023-03-19T16:54:48;13.24;73.95
67249;SHT31;63247;54.300;18.592;2023-03-19T16:57:15;13.04;74.62
67249;SHT31;63247;54.300;18.592;2023-03-19T16:59:41;12.88;75.07
67249;SHT31;63247;54.300;18.592;2023-03-19T17:02:12;12.99;75.22
67249;SHT31;63247;54.300;18.592;2023-03-19T17:04:38;13.00;75.21
67249;SHT31;63247;54.300;18.592;2023-03-19T17:07:05;13.00;74.82
67249;SHT31;63247;54.300;18.592;2023-03-19T17:09:30;12.92;74.61
67249;SHT31;63247;54.300;18.592;2023-03-19T17:11:56;12.88;74.66
67249;SHT31;63247;54.300;18.592;2023-03-19T17:14:22;12.78;75.06
67249;SHT31;63247;54.300;18.592;2023-03-19T17:16:48;12.56;75.60
67249;SHT31;63247;54.300;18.592;2023-03-19T17:19:21;12.49;75.85
67249;SHT31;63247;54.300;18.592;2023-03-19T17:21:53;12.59;75.33
67249;SHT31;63247;54.300;18.592;2023-03-19T17:24:31;12.31;76.06
67249;SHT31;63247;54.300;18.592;2023-03-19T17:26:59;12.08;76.83
67249;SHT31;63247;54.300;18.592;2023-03-19T17:29:25;12.25;76.31
67249;SHT31;63247;54.300;18.592;2023-03-19T17:31:52;12.13;76.60
67249;SHT31;63247;54.300;18.592;2023-03-19T17:34:21;12.03;77.31
67249;SHT31;63247;54.300;18.592;2023-03-19T17:37:11;11.83;78.00
67249;SHT31;63247;54.300;18.592;2023-03-19T17:39:37;11.70;78.08
67249;SHT31;63247;54.300;18.592;2023-03-19T17:42:17;11.63;78.11
67249;SHT31;63247;54.300;18.592;2023-03-19T17:44:43;11.52;78.44
67249;SHT31;63247;54.300;18.592;2023-03-19T17:47:10;11.56;78.56
67249;SHT31;63247;54.300;18.592;2023-03-19T17:49:35;11.51;78.43
67249;SHT31;63247;54.300;18.592;2023-03-19T17:52:01;11.48;78.29
67249;SHT31;63247;54.300;18.592;2023-03-19T17:54:27;11.39;78.48
67249;SHT31;63247;54.300;18.592;2023-03-19T17:56:54;11.32;78.58